sensor_id;sensor_type;location;lat;lon;timestamp;P1;durP1;ratioP1;P2;durP2;ratioP2
39082;SDS011;24834;44.444;26.098;2023-12-20T00:03:16;113.67;;;101.00;;
39082;SDS011;24834;44.444;26.098;2023-12-20T00:09:18;116.00;;;101.67;;
39082;SDS011;24834;44.444;26.098;2023-12-20T00:15:21;114.50;;;94.25;;
39082;SDS011;24834;44.444;26.098;2023-12-20T00:21:25;105.00;;;93.75;;
39082;SDS011;24834;44.444;26.098;2023-12-20T00:27:27;112.33;;;98.33;;
39082;SDS011;24834;44.444;26.098;2023-12-20T00:33:29;107.33;;;89.33;;
39082;SDS011;24834;44.444;26.098;2023-12-20T00:39:32;109.67;;;100.33;;
39082;SDS011;24834;44.444;26.098;2023-12-20T00:45:34;109.00;;;93.00;;
39082;SDS011;24834;44.444;26.098;2023-12-20T00:51:37;115.25;;;100.75;;
39082;SDS011;24834;44.444;26.098;2023-12-20T00:57:40;112.00;;;98.00;;
39082;SDS011;24834;44.444;26.098;2023-12-20T01:03:55;111.00;;;99.33;;
39082;SDS011;24834;44.444;26.098;2023-12-20T01:09:57;111.67;;;98.67;;
39082;SDS011;24834;44.444;26.098;2023-12-20T01:16:01;110.33;;;96.33;;
39082;SDS011;24834;44.444;26.098;2023-12-20T01:22:04;110.67;;;97.00;;
39082;SDS011;24834;44.444;26.098;2023-12-20T01:28:10;109.00;;;91.33;;
39082;SDS011;24834;44.444;26.098;2023-12-20T01:34:12;112.33;;;93.00;;
39082;SDS011;24834;44.444;26.098;2023-12-20T01:40:14;117.00;;;102.00;;
39082;SDS011;24834;44.444;26.098;2023-12-20T01:46:19;109.00;;;89.33;;
39082;SDS011;24834;44.444;26.098;2023-12-20T01:52:22;103.33;;;85.00;;
39082;SDS011;24834;44.444;26.098;2023-12-20T01:58:26;105.67;;;87.00;;
39082;SDS011;24834;44.444;26.098;2023-12-20T02:04:29;106.67;;;94.33;;
39082;SDS011;24834;44.444;26.098;2023-12-20T02:10:32;117.33;;;100.00;;
39082;SDS011;24834;44.444;26.098;2023-12-20T02:16:34;110.00;;;99.00;;
39082;SDS011;24834;44.444;26.098;2023-12-20T02:22:38;111.00;;;99.75;;
39082;SDS011;24834;44.444;26.098;2023-12-20T02:28:43;109.25;;;95.50;;
39082;SDS011;24834;44.444;26.098;2023-12-20T02:34:47;104.33;;;94.33;;
39082;SDS011;24834;44.444;26.098;2023-12-20T02:40:50;112.25;;;101.00;;
39082;SDS011;24834;44.444;26.098;2023-12-20T02:46:53;110.75;;;98.75;;
39082;SDS011;24834;44.444;26.098;2023-12-20T02:52:57;112.25;;;98.50;;
39082;SDS011;24834;44.444;26.098;2023-12-20T02:59:01;104.00;;;87.67;;
39082;SDS011;24834;44.444;26.098;2023-12-20T03:05:07;110.67;;;91.67;;
39082;SDS011;24834;44.444;26.098;2023-12-20T03:11:10;109.33;;;94.00;;
39082;SDS011;24834;44.444;26.098;2023-12-20T03:17:14;118.00;;;103.00;;
39082;SDS011;24834;44.444;26.098;2023-12-20T03:23:18;106.67;;;88.67;;
39082;SDS011;24834;44.444;26.098;2023-12-20T03:29:20;111.00;;;95.00;;
39082;SDS011;24834;44.444;26.098;2023-12-20T03:35:22;105.00;;;84.67;;
39082;SDS011;24834;44.444;26.098;2023-12-20T03:41:25;101.33;;;83.67;;
39082;SDS011;24834;44.444;26.098;2023-12-20T03:47:27;107.67;;;90.67;;
39082;SDS011;24834;44.444;26.098;2023-12-20T03:53:29;101.25;;;80.50;;
39082;SDS011;24834;44.444;26.098;2023-12-20T03:59:35;101.67;;;83.33;;
39082;SDS011;24834;44.444;26.098;2023-12-20T04:05:40;107.00;;;90.00;;
39082;SDS011;24834;44.444;26.098;2023-12-20T04:11:43;100.33;;;79.33;;
39082;SDS011;24834;44.444;26.098;2023-12-20T04:17:46;102.33;;;85.33;;
39082;SDS011;24834;44.444;26.098;2023-12-20T04:23:48;76.33;;;56.33;;
39082;SDS011;24834;44.444;26.098;2023-12-20T04:29:51;102.00;;;85.33;;
39082;SDS011;24834;44.444;26.098;2023-12-20T04:35:53;106.33;;;83.67;;
39082;SDS011;24834;44.444;26.098;2023-12-20T04:41:55;103.33;;;83.00;;
39082;SDS011;24834;44.444;26.098;2023-12-20T04:47:58;96.33;;;76.00;;
39082;SDS011;24834;44.444;26.098;2023-12-20T04:54:03;93.33;;;70.67;;
39082;SDS011;24834;44.444;26.098;2023-12-20T05:00:06;101.00;;;73.67;;
39082;SDS011;24834;44.444;26.098;2023-12-20T05:06:11;100.33;;;76.00;;
39082;SDS011;24834;44.444;26.098;2023-12-20T05:12:14;96.67;;;75.00;;
